createdAt,value
2019-03-13T00:00:16.931Z,3.50
2019-03-13T00:02:45.512Z,3.50
2019-03-13T00:05:13.814Z,3.50
2019-03-13T00:07:42.072Z,3.50
2019-03-13T00:10:10.898Z,3.50
2019-03-13T00:12:39.149Z,3.50
2019-03-13T00:15:10.198Z,3.50
2019-03-13T00:17:38.463Z,3.50
2019-03-13T00:20:09.007Z,3.50
2019-03-13T00:22:37.267Z,3.50
2019-03-13T00:25:06.563Z,3.50
2019-03-13T00:27:34.854Z,3.40
2019-03-13T00:30:03.216Z,3.40
2019-03-13T00:32:31.541Z,3.40
2019-03-13T00:34:59.829Z,3.40
2019-03-13T00:37:28.157Z,3.40
2019-03-13T00:39:56.435Z,3.40
2019-03-13T00:42:24.815Z,3.40
2019-03-13T00:44:53.055Z,3.40
2019-03-13T00:47:21.339Z,3.40
2019-03-13T00:49:49.617Z,3.30
2019-03-13T00:52:17.906Z,3.30
2019-03-13T00:54:46.222Z,3.40
2019-03-13T00:57:14.505Z,3.40
2019-03-13T00:59:42.778Z,3.30
2019-03-13T01:02:15.633Z,3.40
2019-03-13T01:04:45.544Z,3.40
2019-03-13T01:07:13.815Z,3.40
2019-03-13T01:09:42.089Z,3.50
2019-03-13T01:12:10.373Z,3.60
2019-03-13T01:14:38.663Z,3.50
2019-03-13T01:17:07.918Z,3.50
2019-03-13T01:19:36.254Z,3.60
2019-03-13T01:22:04.584Z,3.60
2019-03-13T01:24:32.856Z,3.60
2019-03-13T01:27:01.232Z,3.60
2019-03-13T01:29:29.472Z,3.60
2019-03-13T01:31:59.395Z,3.60
2019-03-13T01:34:34.957Z,3.70
2019-03-13T01:37:03.241Z,3.70
2019-03-13T01:39:31.488Z,3.70
2019-03-13T01:41:59.784Z,3.80
2019-03-13T01:44:28.058Z,3.80
2019-03-13T01:46:56.350Z,3.80
2019-03-13T01:49:24.644Z,3.80
2019-03-13T01:51:52.993Z,3.90
2019-03-13T01:54:21.342Z,3.90
2019-03-13T01:56:49.595Z,3.90
2019-03-13T01:59:17.918Z,3.90
2019-03-13T02:01:46.197Z,3.90
2019-03-13T02:04:14.475Z,3.90
2019-03-13T02:06:42.738Z,4.00
2019-03-13T02:09:11.030Z,4.00
2019-03-13T02:11:39.291Z,4.00
2019-03-13T02:14:07.564Z,4.00
2019-03-13T02:16:35.836Z,3.90
2019-03-13T02:19:04.147Z,4.00
2019-03-13T02:21:32.473Z,3.90
2019-03-13T02:24:00.752Z,4.00
2019-03-13T02:26:29.004Z,4.00
2019-03-13T02:28:57.307Z,4.00
2019-03-13T02:31:25.684Z,4.00
2019-03-13T02:33:54.011Z,4.00
2019-03-13T02:36:22.331Z,4.00
2019-03-13T02:38:50.813Z,4.00
2019-03-13T02:41:19.298Z,4.00
2019-03-13T02:43:48.122Z,4.00
2019-03-13T02:46:16.444Z,4.00
2019-03-13T02:48:44.699Z,4.10
2019-03-13T02:51:12.995Z,4.00
2019-03-13T02:53:41.282Z,4.00
2019-03-13T02:56:09.633Z,4.00
2019-03-13T02:58:37.897Z,4.00
2019-03-13T03:01:13.390Z,4.00
2019-03-13T03:03:46.324Z,4.00
2019-03-13T03:06:14.607Z,4.00
2019-03-13T03:08:42.863Z,4.00
2019-03-13T03:11:11.133Z,4.00
2019-03-13T03:13:39.413Z,4.00
2019-03-13T03:16:07.697Z,4.00
2019-03-13T03:18:35.968Z,4.00
2019-03-13T03:21:04.381Z,3.90
2019-03-13T03:23:32.705Z,4.00
2019-03-13T03:26:00.988Z,3.90
2019-03-13T03:28:29.245Z,3.90
2019-03-13T03:30:57.519Z,3.90
2019-03-13T03:33:25.852Z,4.00
2019-03-13T03:35:54.132Z,4.00
2019-03-13T03:38:22.504Z,4.00
2019-03-13T03:40:50.784Z,4.00
2019-03-13T03:43:19.059Z,4.00
2019-03-13T03:45:47.338Z,4.00
2019-03-13T03:48:15.579Z,4.10
2019-03-13T03:50:43.883Z,4.00
2019-03-13T03:53:12.221Z,4.00
2019-03-13T03:55:40.533Z,4.00
2019-03-13T03:58:08.853Z,4.10
2019-03-13T04:00:37.111Z,4.00
2019-03-13T04:03:05.459Z,4.00
2019-03-13T04:05:33.723Z,4.00
2019-03-13T04:08:02.012Z,4.00
2019-03-13T04:10:30.348Z,4.00
2019-03-13T04:12:58.630Z,4.00
2019-03-13T04:15:26.976Z,4.10
2019-03-13T04:17:55.313Z,4.00
2019-03-13T04:20:23.676Z,4.00
2019-03-13T04:22:52.035Z,4.00
2019-03-13T04:25:23.599Z,4.10
2019-03-13T04:27:51.943Z,4.00
2019-03-13T04:30:20.245Z,4.00
2019-03-13T04:32:48.624Z,4.10
2019-03-13T04:35:17.022Z,4.10
2019-03-13T04:37:45.334Z,4.20
2019-03-13T04:40:16.266Z,4.20
2019-03-13T04:42:44.539Z,4.20
2019-03-13T04:45:12.814Z,4.20
2019-03-13T04:47:41.093Z,4.20
2019-03-13T04:50:13.153Z,4.20
2019-03-13T04:52:41.395Z,4.20
2019-03-13T04:55:11.763Z,4.20
2019-03-13T04:57:40.009Z,4.20
2019-03-13T05:00:18.343Z,4.20
2019-03-13T05:02:46.619Z,4.20
2019-03-13T05:05:37.488Z,4.20
2019-03-13T05:08:05.733Z,4.30
2019-03-13T05:10:34.008Z,4.30
2019-03-13T05:13:02.414Z,4.30
2019-03-13T05:15:30.739Z,4.30
2019-03-13T05:17:58.984Z,4.30
2019-03-13T05:20:27.278Z,4.20
2019-03-13T05:22:55.535Z,4.20
2019-03-13T05:25:23.823Z,4.30
2019-03-13T05:27:52.083Z,4.30
2019-03-13T05:30:20.413Z,4.30
2019-03-13T05:32:48.668Z,4.30
2019-03-13T05:35:16.959Z,4.30
2019-03-13T05:37:45.205Z,4.30
2019-03-13T05:40:13.491Z,4.30
2019-03-13T05:42:41.732Z,4.30
2019-03-13T05:45:10.032Z,4.30
2019-03-13T05:47:38.294Z,4.40
2019-03-13T05:50:09.227Z,4.40
2019-03-13T05:52:37.469Z,4.40
2019-03-13T05:55:06.314Z,4.40
2019-03-13T05:57:34.588Z,4.40
2019-03-13T06:00:04.179Z,4.40
2019-03-13T06:02:32.453Z,4.40
2019-03-13T06:05:00.720Z,4.40
2019-03-13T06:07:29.009Z,4.40
2019-03-13T06:09:57.259Z,4.40
2019-03-13T06:12:25.569Z,1.20
2019-03-13T06:14:53.824Z,4.40
2019-03-13T06:17:22.117Z,4.40
2019-03-13T06:19:50.354Z,4.40
2019-03-13T06:22:18.654Z,4.40
2019-03-13T06:24:46.925Z,4.40
2019-03-13T06:27:15.216Z,4.40
2019-03-13T06:29:43.467Z,4.50
2019-03-13T06:32:11.752Z,4.50
2019-03-13T06:34:40.074Z,4.60
2019-03-13T06:37:08.375Z,4.60
2019-03-13T06:39:36.634Z,4.60
2019-03-13T06:42:04.934Z,4.60
2019-03-13T06:44:33.192Z,4.60
2019-03-13T06:47:01.467Z,4.60
2019-03-13T06:49:29.732Z,4.60
2019-03-13T06:51:58.021Z,4.60
2019-03-13T06:54:26.322Z,4.60
2019-03-13T06:56:54.606Z,4.60
2019-03-13T06:59:24.507Z,4.60
2019-03-13T07:01:54.580Z,4.60
2019-03-13T07:04:24.549Z,4.50
2019-03-13T07:07:12.655Z,4.50
2019-03-13T07:09:45.308Z,4.50
2019-03-13T07:12:15.293Z,4.50
2019-03-13T07:15:02.998Z,4.40
2019-03-13T07:17:48.993Z,4.40
2019-03-13T07:20:18.877Z,4.40
2019-03-13T07:22:51.888Z,4.40
2019-03-13T07:25:21.818Z,4.40
2019-03-13T07:28:07.734Z,4.40
2019-03-13T07:30:54.012Z,4.40
2019-03-13T07:33:23.915Z,4.50
2019-03-13T07:35:56.363Z,4.60
2019-03-13T07:38:35.399Z,4.60
2019-03-13T07:41:11.073Z,4.70
2019-03-13T07:43:43.714Z,4.70
2019-03-13T07:46:13.647Z,4.80
2019-03-13T07:48:55.757Z,4.90
2019-03-13T07:51:31.559Z,5.00
2019-03-13T07:54:16.449Z,5.10
2019-03-13T07:56:49.096Z,5.20
2019-03-13T07:59:19.029Z,5.30
2019-03-13T08:01:57.799Z,5.20
2019-03-13T08:04:42.838Z,5.10
2019-03-13T08:07:28.712Z,5.10
2019-03-13T08:10:04.689Z,5.00
2019-03-13T08:12:37.347Z,5.00
2019-03-13T08:15:10.744Z,4.90
2019-03-13T08:17:46.362Z,4.80
2019-03-13T08:20:28.381Z,4.70
2019-03-13T08:22:58.299Z,4.70
2019-03-13T08:25:28.188Z,4.70
2019-03-13T08:28:03.896Z,4.70
2019-03-13T08:30:39.900Z,4.70
2019-03-13T08:33:12.503Z,4.60
2019-03-13T08:35:54.464Z,4.50
2019-03-13T08:38:24.376Z,4.50
2019-03-13T08:40:54.299Z,4.70
2019-03-13T08:43:26.938Z,4.70
2019-03-13T08:46:02.856Z,4.70
2019-03-13T08:48:38.719Z,4.70
2019-03-13T08:51:20.644Z,4.80
2019-03-13T08:53:59.352Z,4.90
2019-03-13T08:56:29.335Z,5.00
2019-03-13T08:59:07.807Z,5.10
2019-03-13T09:01:55.587Z,5.30
2019-03-13T09:04:31.267Z,5.30
2019-03-13T09:07:01.178Z,5.20
2019-03-13T09:09:42.898Z,5.30
2019-03-13T09:12:15.631Z,5.20
2019-03-13T09:15:00.702Z,5.30
2019-03-13T09:17:30.664Z,5.30
2019-03-13T09:20:12.626Z,5.20
2019-03-13T09:22:48.596Z,5.30
2019-03-13T09:25:18.512Z,5.30
2019-03-13T09:27:51.583Z,5.30
2019-03-13T09:30:24.457Z,5.30
2019-03-13T09:32:54.410Z,5.40
2019-03-13T09:35:27.081Z,5.50
2019-03-13T09:38:13.318Z,5.70
2019-03-13T09:40:59.513Z,5.60
2019-03-13T09:43:29.453Z,5.50
2019-03-13T09:46:11.501Z,5.60
2019-03-13T09:48:59.572Z,5.60
2019-03-13T09:51:29.471Z,5.50
2019-03-13T09:54:15.393Z,5.30
2019-03-13T09:56:48.271Z,5.30
2019-03-13T09:59:18.179Z,5.20
2019-03-13T10:01:50.589Z,5.10
2019-03-13T10:04:26.242Z,5.00
2019-03-13T10:07:13.963Z,4.80
2019-03-13T10:09:59.933Z,4.90
2019-03-13T10:12:35.261Z,4.80
2019-03-13T10:15:06.103Z,4.80
2019-03-13T10:17:52.299Z,4.70
2019-03-13T10:20:22.283Z,4.60
2019-03-13T10:22:57.938Z,4.50
2019-03-13T10:25:33.586Z,4.40
2019-03-13T10:28:06.201Z,4.60
2019-03-13T10:30:36.111Z,4.40
2019-03-13T10:33:12.145Z,4.50
2019-03-13T10:35:42.092Z,4.80
2019-03-13T10:38:14.188Z,4.80
2019-03-13T10:40:43.616Z,4.90
2019-03-13T10:43:15.993Z,5.00
2019-03-13T10:45:48.612Z,5.00
2019-03-13T10:48:21.495Z,5.00
2019-03-13T10:51:07.835Z,5.20
2019-03-13T10:53:37.766Z,5.40
2019-03-13T10:56:19.605Z,5.60
2019-03-13T10:59:07.697Z,5.60
2019-03-13T11:01:37.614Z,5.50
2019-03-13T11:04:07.537Z,5.40
2019-03-13T11:06:54.876Z,5.10
2019-03-13T11:09:17.896Z,5.10
2019-03-13T11:11:47.798Z,5.00
2019-03-13T11:14:32.578Z,4.90
2019-03-13T11:17:02.507Z,4.70
2019-03-13T11:19:32.419Z,5.10
2019-03-13T11:22:20.476Z,5.10
2019-03-13T11:24:50.431Z,5.30
2019-03-13T11:27:20.430Z,5.60
2019-03-13T11:29:52.903Z,5.50
2019-03-13T11:32:31.517Z,5.50
2019-03-13T11:35:16.223Z,5.50
2019-03-13T11:37:52.190Z,5.30
2019-03-13T11:40:22.127Z,5.40
2019-03-13T11:43:00.934Z,5.40
2019-03-13T11:45:42.417Z,5.50
2019-03-13T11:48:12.312Z,5.50
2019-03-13T11:50:58.384Z,5.60
2019-03-13T11:53:34.343Z,5.50
2019-03-13T11:56:16.073Z,5.50
2019-03-13T11:58:48.940Z,5.40
2019-03-13T12:01:18.842Z,5.30
2019-03-13T12:03:51.489Z,5.20
2019-03-13T12:06:21.463Z,5.20
2019-03-13T12:08:51.359Z,5.20
2019-03-13T12:11:21.284Z,5.20
2019-03-13T12:14:07.431Z,5.30
2019-03-13T12:16:37.353Z,5.30
2019-03-13T12:19:07.330Z,5.20
2019-03-13T12:21:53.261Z,5.30
2019-03-13T12:24:23.157Z,5.20
2019-03-13T12:27:09.385Z,5.20
2019-03-13T12:29:45.027Z,5.30
2019-03-13T12:32:30.971Z,5.20
2019-03-13T12:35:16.106Z,5.20
2019-03-13T12:37:54.988Z,5.10
2019-03-13T12:40:27.371Z,5.10
2019-03-13T12:43:09.071Z,5.10
2019-03-13T12:45:50.891Z,5.10
2019-03-13T12:48:29.558Z,5.30
2019-03-13T12:51:08.210Z,5.20
2019-03-13T12:53:38.095Z,5.30
2019-03-13T12:56:24.401Z,5.30
2019-03-13T12:59:06.081Z,5.30
2019-03-13T13:01:39.052Z,5.20
2019-03-13T13:04:18.116Z,5.10
2019-03-13T13:06:53.916Z,5.10
2019-03-13T13:09:38.749Z,5.00
2019-03-13T13:12:24.692Z,5.00
2019-03-13T13:14:54.605Z,8.70
2019-03-13T13:17:40.791Z,5.00
2019-03-13T13:20:13.642Z,5.00
2019-03-13T13:22:42.005Z,4.90
2019-03-13T13:25:10.650Z,5.00
2019-03-13T13:27:39.058Z,4.90
2019-03-13T13:30:13.201Z,4.90
2019-03-13T13:32:41.473Z,4.90
2019-03-13T13:35:10.202Z,4.90
2019-03-13T13:37:38.549Z,4.90
2019-03-13T13:40:15.035Z,5.00
2019-03-13T13:42:43.303Z,5.00
2019-03-13T13:45:32.907Z,4.90
2019-03-13T13:47:59.804Z,4.80
2019-03-13T13:50:28.061Z,4.70
2019-03-13T13:52:56.337Z,4.60
2019-03-13T13:55:24.700Z,4.50
2019-03-13T13:57:52.980Z,4.50
2019-03-13T14:00:21.325Z,4.50
2019-03-13T14:02:49.652Z,4.40
2019-03-13T14:05:17.942Z,4.40
2019-03-13T14:07:46.242Z,4.30
2019-03-13T14:10:14.608Z,4.30
2019-03-13T14:12:42.874Z,4.20
2019-03-13T14:15:12.592Z,4.20
2019-03-13T14:17:40.841Z,4.10
2019-03-13T14:20:11.642Z,4.20
2019-03-13T14:22:39.971Z,4.20
2019-03-13T14:25:09.804Z,4.30
2019-03-13T14:27:38.067Z,4.30
2019-03-13T14:30:09.629Z,4.30
2019-03-13T14:32:37.965Z,4.30
2019-03-13T14:35:06.280Z,4.40
2019-03-13T14:37:34.652Z,4.40
2019-03-13T14:40:04.188Z,4.40
2019-03-13T14:42:32.512Z,4.50
2019-03-13T14:45:00.848Z,4.50
2019-03-13T14:47:29.139Z,4.40
2019-03-13T14:49:57.402Z,4.40
2019-03-13T14:52:25.698Z,4.50
2019-03-13T14:54:53.972Z,4.40
2019-03-13T14:57:22.340Z,4.30
2019-03-13T14:59:50.602Z,4.30
2019-03-13T15:02:18.907Z,4.20
2019-03-13T15:04:47.192Z,4.10
2019-03-13T15:07:15.471Z,4.10
2019-03-13T15:09:43.761Z,4.10
2019-03-13T15:12:12.057Z,4.00
2019-03-13T15:14:40.301Z,4.10
2019-03-13T15:17:08.596Z,4.10
2019-03-13T15:19:36.859Z,4.00
2019-03-13T15:22:05.192Z,4.00
2019-03-13T15:24:33.460Z,4.10
2019-03-13T15:27:01.749Z,4.10
2019-03-13T15:29:30.002Z,4.20
2019-03-13T15:31:58.283Z,4.20
2019-03-13T15:34:26.545Z,4.20
2019-03-13T15:36:54.891Z,4.30
2019-03-13T15:39:23.220Z,4.30
2019-03-13T15:41:51.500Z,4.30
2019-03-13T15:44:19.847Z,4.30
2019-03-13T15:46:48.123Z,4.30
2019-03-13T15:49:16.505Z,4.30
2019-03-13T15:51:44.823Z,4.20
2019-03-13T15:54:13.266Z,4.10
2019-03-13T15:56:41.547Z,4.10
2019-03-13T15:59:09.826Z,4.00
2019-03-13T16:01:38.221Z,4.00
2019-03-13T16:04:06.515Z,4.00
2019-03-13T16:06:34.766Z,4.10
2019-03-13T16:09:04.436Z,4.10
2019-03-13T16:11:32.712Z,4.10
2019-03-13T16:14:01.013Z,4.10
2019-03-13T16:16:29.283Z,4.10
2019-03-13T16:18:57.581Z,4.10
2019-03-13T16:21:25.832Z,2.20
2019-03-13T16:23:54.102Z,4.20
2019-03-13T16:26:22.432Z,4.20
2019-03-13T16:28:50.780Z,4.20
2019-03-13T16:31:19.117Z,4.30
2019-03-13T16:33:47.416Z,4.30
2019-03-13T16:36:15.707Z,4.40
2019-03-13T16:38:43.987Z,4.50
2019-03-13T16:41:12.468Z,4.50
2019-03-13T16:43:40.821Z,4.50
2019-03-13T16:46:09.094Z,4.60
2019-03-13T16:48:37.417Z,4.50
2019-03-13T16:51:05.774Z,4.50
2019-03-13T16:53:34.058Z,4.60
2019-03-13T16:56:02.336Z,4.70
2019-03-13T16:58:30.602Z,4.70
2019-03-13T17:00:58.916Z,4.70
2019-03-13T17:03:27.193Z,4.60
2019-03-13T17:05:55.488Z,4.50
2019-03-13T17:08:23.777Z,4.50
2019-03-13T17:10:52.132Z,4.50
2019-03-13T17:13:20.429Z,4.50
2019-03-13T17:15:48.756Z,4.50
2019-03-13T17:18:17.059Z,4.40
2019-03-13T17:20:45.367Z,4.40
2019-03-13T17:23:13.734Z,4.50
2019-03-13T17:25:42.033Z,4.50
2019-03-13T17:28:10.306Z,4.40
2019-03-13T17:30:38.572Z,4.50
2019-03-13T17:33:06.874Z,4.40
2019-03-13T17:35:35.197Z,4.40
2019-03-13T17:38:03.600Z,4.30
2019-03-13T17:40:32.865Z,4.30
2019-03-13T17:43:01.188Z,4.20
2019-03-13T17:45:29.511Z,4.20
2019-03-13T17:47:57.815Z,4.10
2019-03-13T17:50:26.051Z,4.10
2019-03-13T17:52:54.382Z,4.10
2019-03-13T17:55:23.807Z,4.10
2019-03-13T17:57:52.087Z,4.00
2019-03-13T18:00:31.064Z,4.00
2019-03-13T18:02:59.414Z,4.00
2019-03-13T18:05:27.724Z,3.90
2019-03-13T18:07:56.010Z,3.90
2019-03-13T18:10:24.378Z,3.80
2019-03-13T18:12:52.721Z,3.80
2019-03-13T18:15:20.977Z,3.80
2019-03-13T18:17:49.267Z,3.70
2019-03-13T18:20:20.129Z,3.70
2019-03-13T18:22:48.529Z,3.70
2019-03-13T18:25:18.385Z,3.70
2019-03-13T18:27:47.071Z,3.70
2019-03-13T18:30:17.306Z,3.60
2019-03-13T18:32:45.605Z,3.60
2019-03-13T18:35:14.951Z,3.60
2019-03-13T18:37:43.269Z,3.50
2019-03-13T18:40:17.514Z,3.50
2019-03-13T18:42:45.801Z,3.60
2019-03-13T18:45:23.098Z,3.60
2019-03-13T18:47:51.666Z,3.60
2019-03-13T18:50:20.133Z,3.60
2019-03-13T18:52:48.641Z,3.60
2019-03-13T18:55:22.118Z,3.70
2019-03-13T18:57:50.856Z,3.70
2019-03-13T19:00:23.857Z,3.70
2019-03-13T19:02:52.233Z,3.80
2019-03-13T19:05:20.517Z,3.80
2019-03-13T19:07:48.807Z,3.90
2019-03-13T19:10:22.061Z,3.90
2019-03-13T19:12:50.435Z,3.90
2019-03-13T19:15:20.464Z,3.90
2019-03-13T19:17:48.751Z,3.90
2019-03-13T19:20:22.133Z,3.90
2019-03-13T19:22:50.579Z,4.00
2019-03-13T19:25:19.008Z,4.00
2019-03-13T19:27:47.306Z,4.10
2019-03-13T19:30:33.956Z,4.10
2019-03-13T19:33:02.399Z,4.20
2019-03-13T19:35:30.725Z,4.30
2019-03-13T19:38:09.957Z,4.40
2019-03-13T19:40:38.243Z,4.40
2019-03-13T19:43:06.610Z,4.40
2019-03-13T19:45:40.047Z,4.40
2019-03-13T19:48:09.434Z,4.40
2019-03-13T19:50:37.727Z,4.40
2019-03-13T19:53:06.090Z,4.40
2019-03-13T19:55:34.565Z,4.40
2019-03-13T19:58:02.886Z,4.40
2019-03-13T20:00:31.214Z,4.40
2019-03-13T20:03:02.007Z,4.40
2019-03-13T20:05:30.278Z,4.40
2019-03-13T20:07:58.599Z,4.40
2019-03-13T20:10:30.318Z,4.40
2019-03-13T20:12:58.818Z,4.40
2019-03-13T20:15:31.236Z,4.40
2019-03-13T20:17:59.560Z,4.30
2019-03-13T20:20:27.840Z,4.30
2019-03-13T20:23:01.928Z,4.30
2019-03-13T20:25:30.263Z,4.30
2019-03-13T20:27:58.625Z,4.30
2019-03-13T20:30:27.010Z,4.30
2019-03-13T20:32:55.255Z,4.40
2019-03-13T20:35:23.562Z,4.40
2019-03-13T20:37:51.871Z,4.40
2019-03-13T20:40:25.252Z,4.50
2019-03-13T20:42:53.580Z,4.50
2019-03-13T20:45:23.317Z,4.50
2019-03-13T20:47:51.926Z,4.30
2019-03-13T20:50:20.294Z,4.50
2019-03-13T20:52:48.555Z,4.50
2019-03-13T20:55:17.889Z,4.50
2019-03-13T20:57:46.155Z,4.40
2019-03-13T21:00:23.286Z,4.50
2019-03-13T21:02:56.579Z,4.50
2019-03-13T21:05:25.182Z,4.50
2019-03-13T21:07:53.881Z,4.60
2019-03-13T21:10:22.151Z,4.50
2019-03-13T21:12:50.517Z,4.50
2019-03-13T21:15:23.892Z,4.50
2019-03-13T21:17:52.162Z,4.50
2019-03-13T21:20:20.793Z,4.50
2019-03-13T21:22:49.184Z,4.50
2019-03-13T21:25:18.636Z,4.60
2019-03-13T21:27:48.097Z,4.60
2019-03-13T21:30:22.117Z,4.60
2019-03-13T21:32:50.425Z,4.70
2019-03-13T21:35:18.846Z,4.70
2019-03-13T21:37:47.211Z,4.70
2019-03-13T21:40:20.622Z,4.60
2019-03-13T21:42:48.928Z,4.70
2019-03-13T21:45:22.339Z,4.70
2019-03-13T21:47:47.221Z,4.60
2019-03-13T21:50:16.649Z,4.60
2019-03-13T21:52:45.001Z,4.60
2019-03-13T21:55:14.469Z,4.60
2019-03-13T21:57:42.771Z,4.60
2019-03-13T22:00:24.183Z,4.70
2019-03-13T22:02:52.604Z,4.60
2019-03-13T22:05:26.177Z,4.60
2019-03-13T22:07:51.071Z,4.60
2019-03-13T22:10:19.641Z,4.70
2019-03-13T22:12:47.939Z,4.60
2019-03-13T22:15:21.170Z,4.60
2019-03-13T22:17:49.477Z,4.60
2019-03-13T22:20:18.192Z,4.60
2019-03-13T22:22:46.635Z,4.50
2019-03-13T22:25:16.164Z,4.50
2019-03-13T22:27:44.488Z,4.50
2019-03-13T22:30:28.665Z,4.60
2019-03-13T22:32:56.092Z,4.60
2019-03-13T22:35:24.380Z,4.60
2019-03-13T22:37:52.680Z,4.60
2019-03-13T22:40:20.964Z,4.60
2019-03-13T22:42:49.261Z,4.60
2019-03-13T22:45:21.257Z,4.60
2019-03-13T22:47:49.525Z,4.60
2019-03-13T22:50:21.830Z,4.70
2019-03-13T22:52:50.132Z,4.80
2019-03-13T22:55:18.428Z,4.80
2019-03-13T22:57:46.682Z,4.90
2019-03-13T23:00:25.624Z,4.80
2019-03-13T23:02:54.004Z,4.80
2019-03-13T23:05:22.343Z,4.90
2019-03-13T23:07:50.610Z,7.10
2019-03-13T23:10:34.815Z,5.00
2019-03-13T23:13:03.068Z,5.00
2019-03-13T23:15:31.402Z,5.00
2019-03-13T23:17:59.690Z,5.10
2019-03-13T23:20:28.035Z,5.10
2019-03-13T23:22:56.317Z,5.00
2019-03-13T23:25:24.589Z,5.10
2019-03-13T23:27:52.960Z,5.00
2019-03-13T23:30:21.246Z,5.00
2019-03-13T23:32:49.492Z,5.00
2019-03-13T23:35:17.792Z,5.00
2019-03-13T23:37:46.054Z,4.90
2019-03-13T23:40:14.317Z,4.90
2019-03-13T23:42:42.596Z,4.90
2019-03-13T23:45:10.931Z,5.00
2019-03-13T23:47:39.282Z,4.90
2019-03-13T23:50:09.835Z,5.00
2019-03-13T23:52:38.154Z,5.00
2019-03-13T23:55:06.716Z,5.10
2019-03-13T23:57:34.992Z,5.10
